Time;durP1;ratioP1;P1;durP2;ratioP2;P2;SDS_P1;SDS_P2;PMS_P1;PMS_P2;Temp;Humidity;BMP_temperature;BMP_pressure;BME280_temperature;BME280_humidity;BME280_pressure;Samples;Min_cycle;Max_cycle;Signal;HPM_P1;HPM_P2
2021/01/10 00:01:07;;;;;;;28.15;25.15;;;2.00;61.40;3.90;101298.00;;;;5091609;28;20426;-76
2021/01/10 00:03:34;;;;;;;28.45;24.67;;;2.00;61.20;3.90;101294.00;;;;5093464;28;20417;-74
2021/01/10 00:06:02;;;;;;;29.08;25.17;;;2.10;61.00;3.90;101279.00;;;;5092799;28;20446;-75
2021/01/10 00:08:29;;;;;;;28.90;25.90;;;2.00;61.40;3.90;101286.00;;;;5093434;28;20585;-75
2021/01/10 00:10:57;;;;;;;30.77;26.75;;;2.00;61.30;3.90;101291.00;;;;5101632;28;20429;-75
2021/01/10 00:13:25;;;;;;;34.70;30.40;;;2.00;61.60;3.80;101301.00;;;;5107277;28;20434;-75
2021/01/10 00:15:52;;;;;;;24.95;22.25;;;2.00;61.60;3.80;101284.00;;;;5112115;28;20416;-74
2021/01/10 00:18:19;;;;;;;28.70;24.98;;;1.80;61.90;3.80;101283.00;;;;5102378;28;20449;-73
2021/01/10 00:20:47;;;;;;;26.15;23.27;;;1.80;61.40;3.80;101283.00;;;;5118168;28;20486;-75
2021/01/10 00:23:14;;;;;;;29.85;24.67;;;1.80;61.30;3.80;101294.00;;;;5108848;28;20415;-74
2021/01/10 00:25:42;;;;;;;30.70;24.35;;;1.80;61.10;3.80;101281.00;;;;5084223;28;20409;-73
2021/01/10 00:28:10;;;;;;;29.83;25.52;;;1.90;60.90;3.80;101281.00;;;;5117455;28;20421;-73
2021/01/10 00:30:38;;;;;;;29.88;24.02;;;2.00;60.90;3.80;101287.00;;;;5116983;28;20486;-72
2021/01/10 00:33:06;;;;;;;25.40;22.57;;;1.90;60.60;3.80;101283.00;;;;5112512;28;20461;-74
2021/01/10 00:35:34;;;;;;;27.35;23.20;;;2.00;61.00;3.80;101295.00;;;;5097370;28;20459;-73
2021/01/10 00:38:02;;;;;;;31.00;24.52;;;2.00;60.50;3.80;101289.00;;;;5111540;28;20430;-73
2021/01/10 00:40:29;;;;;;;28.50;24.67;;;2.00;61.30;3.80;101291.00;;;;5094988;28;20458;-74
2021/01/10 00:42:57;;;;;;;30.13;24.42;;;2.00;61.00;3.80;101283.00;;;;5096738;28;20418;-74
2021/01/10 00:45:26;;;;;;;26.95;23.00;;;2.00;61.70;3.80;101299.00;;;;5099556;28;20480;-74
2021/01/10 00:47:54;;;;;;;22.33;19.92;;;1.90;62.20;52.70;158308.00;;;;5094880;28;20424;-73
2021/01/10 00:50:31;;;;;;;26.52;22.70;;;2.00;61.40;3.80;101298.00;;;;5089624;28;20423;-73
2021/01/10 00:52:58;;;;;;;24.33;21.73;;;2.00;61.20;3.80;101291.00;;;;5109926;28;20405;-73
2021/01/10 00:55:26;;;;;;;25.83;20.42;;;2.00;61.30;3.80;101287.00;;;;5115686;28;20467;-74
2021/01/10 00:57:54;;;;;;;22.60;19.15;;;2.00;60.90;3.80;101295.00;;;;5112834;28;20415;-76
2021/01/10 01:00:27;;;;;;;21.80;19.50;;;2.00;60.40;3.80;67087.00;;;;5111472;28;20419;-74
2021/01/10 01:02:54;;;;;;;22.92;20.05;;;2.00;60.40;3.70;101307.00;;;;5111107;28;20450;-74
2021/01/10 01:05:24;;;;;;;25.73;20.88;;;1.90;60.90;3.70;101293.00;;;;5086545;28;20416;-74
2021/01/10 01:07:54;;;;;;;25.42;21.27;;;1.90;61.70;3.70;101305.00;;;;5086560;28;20559;-74
2021/01/10 01:10:29;;;;;;;22.00;18.90;;;1.80;62.30;3.60;101299.00;;;;5092609;28;20421;-73
2021/01/10 01:12:57;;;;;;;23.33;19.40;;;1.80;62.10;3.60;101313.00;;;;5093198;28;20417;-73
2021/01/10 01:15:25;;;;;;;20.38;18.00;;;1.70;61.50;3.60;101298.00;;;;5088324;28;20900;-74
2021/01/10 01:17:53;;;;;;;21.27;18.98;;;1.70;61.10;217.30;158209.00;;;;5091336;28;20406;-74
2021/01/10 01:20:20;;;;;;;20.02;17.00;;;1.70;60.60;3.60;101300.00;;;;5080724;28;20906;-73
2021/01/10 01:22:48;;;;;;;19.63;17.08;;;1.70;60.50;3.60;101302.00;;;;5090624;28;20418;-74
2021/01/10 01:25:15;;;;;;;22.33;18.70;;;1.80;60.20;3.60;101310.00;;;;5090169;28;20968;-73
2021/01/10 01:27:42;;;;;;;29.45;19.55;;;1.70;60.50;3.60;101305.00;;;;5087498;28;20442;-74
2021/01/10 01:30:10;;;;;;;25.40;20.65;;;1.80;61.20;3.60;101303.00;;;;5090739;28;20421;-74
2021/01/10 01:32:39;;;;;;;24.38;20.63;;;1.70;61.00;3.60;101316.00;;;;5088892;28;20454;-74
2021/01/10 01:35:08;;;;;;;27.45;20.17;;;1.70;61.00;3.60;101320.00;;;;5091198;28;20456;-73
2021/01/10 01:37:35;;;;;;;28.27;20.83;;;1.70;61.60;3.60;101299.00;;;;5090269;28;20459;-73
2021/01/10 01:40:05;;;;;;;24.57;20.83;;;1.70;61.50;3.60;101311.00;;;;5089236;28;20509;-73
2021/01/10 01:42:32;;;;;;;24.65;20.90;;;1.70;61.50;3.60;101315.00;;;;5100755;28;20529;-73
2021/01/10 01:45:01;;;;;;;25.48;19.40;;;1.70;61.60;3.60;101321.00;;;;5088764;28;20414;-73
2021/01/10 01:47:28;;;;;;;22.80;19.35;;;1.80;61.60;3.60;101305.00;;;;5105108;28;20846;-74
2021/01/10 01:49:57;;;;;;;23.23;17.90;;;1.80;61.60;3.60;101306.00;;;;5090198;28;20451;-74
2021/01/10 01:52:24;;;;;;;16.27;14.57;;;1.80;60.70;3.60;101302.00;;;;5088948;28;20488;-74
2021/01/10 01:54:53;;;;;;;14.40;12.90;;;1.70;59.30;3.60;101314.00;;;;5105918;28;20516;-72
2021/01/10 01:57:21;;;;;;;15.32;13.20;;;1.60;58.90;3.60;101313.00;;;;5089920;28;20413;-72
2021/01/10 01:59:48;;;;;;;15.17;13.00;;;1.60;59.00;3.60;101315.00;;;;5089606;28;21404;-74
2021/01/10 02:02:16;;;;;;;16.70;14.10;;;1.70;58.80;3.60;101312.00;;;;5103556;28;20932;-73
2021/01/10 02:04:49;;;;;;;17.42;15.07;;;1.70;58.80;3.50;101317.00;;;;5090870;28;20425;-74
2021/01/10 02:07:28;;;;;;;17.33;15.55;;;1.70;59.30;3.50;101306.00;;;;5088747;28;20507;-74
2021/01/10 02:10:06;;;;;;;16.30;14.10;;;1.70;60.20;3.40;101301.00;;;;5098550;28;20462;-73
2021/01/10 02:12:37;;;;;;;15.90;14.20;;;1.60;60.40;3.40;101306.00;;;;5094864;28;20407;-74
2021/01/10 02:15:11;;;;;;;17.27;14.90;;;1.60;59.40;3.30;101306.00;;;;5108512;28;20470;-74
2021/01/10 02:17:42;;;;;;;20.45;17.42;;;1.60;59.70;3.30;101298.00;;;;5106156;28;20418;-74
2021/01/10 02:20:14;;;;;;;19.85;16.30;;;1.60;61.20;3.30;101307.00;;;;5110254;28;20510;-75
2021/01/10 02:22:50;;;;;;;18.30;15.87;;;1.50;61.30;3.30;101296.00;;;;5109262;28;20591;-74
2021/01/10 02:25:18;;;;;;;16.77;14.98;;;1.50;61.30;3.30;101307.00;;;;5127532;28;20434;-74
2021/01/10 02:27:46;;;;;;;15.88;13.70;;;1.50;61.50;3.30;101304.00;;;;5091906;28;20411;-74
2021/01/10 02:30:16;;;;;;;17.60;15.02;;;1.50;60.60;3.40;101303.00;;;;5096593;28;20906;-73
2021/01/10 02:32:48;;;;;;;19.38;16.98;;;1.50;60.40;3.30;101296.00;;;;5084194;28;20427;-73
2021/01/10 02:35:17;;;;;;;18.70;16.20;;;1.50;61.10;3.30;101299.00;;;;5094429;28;20417;-73
2021/01/10 02:38:03;;;;;;;19.88;16.58;;;1.50;61.80;3.30;101297.00;;;;5094307;28;20478;-73
2021/01/10 02:40:39;;;;;;;16.88;15.05;;;1.40;61.50;3.30;101297.00;;;;5105675;28;20865;-74
2021/01/10 02:43:12;;;;;;;17.00;15.15;;;1.50;63.10;3.30;101291.00;;;;5128076;28;20475;-74
2021/01/10 02:45:41;;;;;;;17.40;15.50;;;1.50;62.60;3.30;101302.00;;;;5111640;28;20449;-74
2021/01/10 02:48:09;;;;;;;16.85;14.40;;;1.50;62.60;3.30;101308.00;;;;5127970;28;20483;-74
2021/01/10 02:50:37;;;;;;;18.63;14.93;;;1.50;62.60;3.30;101306.00;;;;5146976;27;20423;-74
2021/01/10 02:53:05;;;;;;;18.60;15.45;;;1.50;62.60;3.40;101290.00;;;;5150277;27;20427;-74
2021/01/10 02:55:34;;;;;;;17.15;15.07;;;1.50;62.60;3.40;101297.00;;;;5132416;28;20492;-74
2021/01/10 02:58:06;;;;;;;18.60;15.88;;;1.50;62.60;3.30;101300.00;;;;5146586;27;20416;-74
2021/01/10 03:00:34;;;;;;;18.23;15.83;;;1.50;62.60;3.30;101305.00;;;;5090410;28;20484;-74
2021/01/10 03:03:03;;;;;;;19.05;15.77;;;1.50;62.40;3.30;66987.00;;;;5094763;28;21094;-78
2021/01/10 03:05:33;;;;;;;19.63;16.73;;;1.40;62.50;3.30;101302.00;;;;5094930;28;20460;-74
2021/01/10 03:08:01;;;;;;;19.05;16.70;;;1.40;62.50;3.30;101305.00;;;;5092688;28;20414;-74
2021/01/10 03:10:29;;;;;;;21.05;17.35;;;1.40;62.70;3.20;101307.00;;;;5094192;28;20889;-73
2021/01/10 03:12:58;;;;;;;20.17;17.97;;;1.40;62.70;3.20;101298.00;;;;5093859;28;20421;-73
2021/01/10 03:15:25;;;;;;;19.17;17.02;;;1.40;62.70;3.30;101307.00;;;;5092055;28;20422;-74
2021/01/10 03:17:53;;;;;;;19.60;17.58;;;1.40;62.50;3.20;101299.00;;;;5092445;28;20414;-74
2021/01/10 03:20:22;;;;;;;21.80;19.52;;;1.40;62.50;3.20;101290.00;;;;5088399;28;20438;-74
2021/01/10 03:22:51;;;;;;;20.50;18.38;;;1.40;63.00;3.20;101295.00;;;;5092075;28;20458;-73
2021/01/10 03:25:22;;;;;;;21.30;19.02;;;1.40;63.00;3.20;101293.00;;;;5090055;28;20419;-73
2021/01/10 03:27:49;;;;;;;21.13;18.92;;;1.40;62.90;3.20;101295.00;;;;5093116;28;20463;-74
2021/01/10 03:30:19;;;;;;;21.98;19.38;;;1.40;63.20;3.20;101312.00;;;;5090678;28;20433;-73
2021/01/10 03:32:47;;;;;;;21.80;18.45;;;1.40;63.50;3.20;101290.00;;;;5109471;28;21049;-78
2021/01/10 03:35:16;;;;;;;20.75;18.20;;;1.40;63.10;3.30;101305.00;;;;5092666;28;20428;-73
2021/01/10 03:37:44;;;;;;;19.80;16.23;;;1.40;63.40;3.30;101301.00;;;;5092732;28;20898;-73
2021/01/10 03:40:13;;;;;;;19.40;16.30;;;1.40;62.60;3.30;66982.00;;;;5106945;28;20816;-73
2021/01/10 03:42:40;;;;;;;19.70;17.23;;;1.40;62.20;3.20;101299.00;;;;5092828;28;20509;-73
2021/01/10 03:45:10;;;;;;;18.52;16.52;;;1.40;62.60;3.30;101296.00;;;;5093079;28;20412;-74
2021/01/10 03:47:39;;;;;;;17.80;15.90;;;1.40;63.10;3.30;66985.00;;;;5094787;28;20413;-73
2021/01/10 03:50:09;;;;;;;17.85;15.95;;;1.40;62.50;3.30;101286.00;;;;5091165;28;20406;-73
2021/01/10 03:52:36;;;;;;;17.25;15.45;;;1.50;62.60;3.20;101314.00;;;;5102896;28;20949;-74
2021/01/10 03:55:04;;;;;;;22.52;17.63;;;1.40;61.60;3.10;101301.00;;;;5085995;28;20426;-73
2021/01/10 03:57:33;;;;;;;22.40;19.13;;;1.30;62.20;3.00;101285.00;;;;5091486;28;20421;-73
2021/01/10 04:00:00;;;;;;;19.77;17.23;;;1.20;62.40;3.00;101280.00;;;;5092221;28;20417;-73
2021/01/10 04:02:28;;;;;;;17.67;15.77;;;1.10;63.60;2.90;101298.00;;;;5103027;28;20891;-74
2021/01/10 04:04:56;;;;;;;16.40;14.70;;;1.10;62.90;2.80;101287.00;;;;5092349;28;20427;-74
2021/01/10 04:07:23;;;;;;;17.33;14.90;;;1.00;62.20;2.90;101271.00;;;;5091204;28;20944;-73
2021/01/10 04:09:51;;;;;;;15.15;13.48;;;0.90;62.10;2.90;101290.00;;;;5088681;28;20464;-73
2021/01/10 04:12:18;;;;;;;16.52;13.77;;;1.00;62.20;3.00;101282.00;;;;5091972;28;20509;-75
2021/01/10 04:14:46;;;;;;;18.38;15.60;;;1.00;61.90;3.10;101293.00;;;;5091774;28;20429;-74
2021/01/10 04:17:13;;;;;;;19.35;16.77;;;1.10;63.00;3.00;66934.00;;;;5092711;28;20766;-74
2021/01/10 04:19:40;;;;;;;23.77;21.10;;;1.10;62.90;3.10;101292.00;;;;5091879;28;20421;-75
2021/01/10 04:22:08;;;;;;;17.75;15.85;;;1.10;63.00;3.10;101300.00;;;;5094035;28;20428;-75
2021/01/10 04:24:36;;;;;;;19.50;16.10;;;1.10;63.80;3.10;101296.00;;;;5124455;28;20398;-77
2021/01/10 04:27:04;;;;;;;18.42;15.57;;;1.20;64.30;3.20;101298.00;;;;5115350;28;20445;-74
2021/01/10 04:29:31;;;;;;;17.73;15.77;;;1.20;63.10;3.20;101291.00;;;;5096730;28;20429;-74
2021/01/10 04:31:59;;;;;;;18.88;16.23;;;1.20;62.40;3.30;101277.00;;;;5091232;28;20475;-75
2021/01/10 04:34:26;;;;;;;18.48;16.63;;;1.30;62.90;217.30;158076.00;;;;5091403;28;20471;-75
2021/01/10 04:36:54;;;;;;;19.35;17.17;;;1.40;62.50;3.30;101282.00;;;;5091561;28;20858;-74
2021/01/10 04:39:22;;;;;;;18.90;16.90;;;1.30;63.20;3.20;101300.00;;;;5094546;28;20509;-74
2021/01/10 04:41:49;;;;;;;20.48;17.73;;;1.30;63.70;3.20;101278.00;;;;5091429;28;20505;-76
2021/01/10 04:44:17;;;;;;;20.05;17.63;;;1.20;64.00;3.10;101280.00;;;;5089174;28;20410;-75
2021/01/10 04:46:45;;;;;;;19.08;17.08;;;1.20;64.00;2.90;101273.00;;;;5094729;28;20414;-75
2021/01/10 04:49:13;;;;;;;18.30;16.35;;;1.10;63.80;2.90;101293.00;;;;5104329;28;20521;-74
2021/01/10 04:51:43;;;;;;;20.90;17.30;;;1.00;64.30;2.90;101289.00;;;;5089943;28;20425;-75
2021/01/10 04:54:13;;;;;;;20.20;18.10;;;1.00;65.90;2.90;101306.00;;;;5090759;28;20977;-75
2021/01/10 04:56:43;;;;;;;20.02;17.65;;;0.90;66.60;2.80;101300.00;;;;5092064;28;20418;-76
2021/01/10 04:59:11;;;;;;;19.50;17.40;;;0.80;67.00;217.30;157892.00;;;;5090507;28;20497;-76
2021/01/10 05:01:45;;;;;;;21.00;17.70;;;0.90;66.90;2.90;101303.00;;;;5081323;28;20751;-75
2021/01/10 05:04:12;;;;;;;20.30;18.10;;;1.00;66.70;3.00;101295.00;;;;5091587;28;20406;-74
2021/01/10 05:06:40;;;;;;;21.15;18.13;;;1.10;66.10;3.00;101270.00;;;;5085811;28;20514;-75
2021/01/10 05:09:08;;;;;;;20.83;18.43;;;1.20;65.50;3.10;101293.00;;;;5090417;28;20940;-75
2021/01/10 05:11:36;;;;;;;21.05;18.48;;;1.20;65.70;3.10;101296.00;;;;5091149;28;20413;-75
2021/01/10 05:14:04;;;;;;;21.65;19.23;;;1.20;65.90;3.10;101298.00;;;;5089670;28;20857;-75
2021/01/10 05:16:32;;;;;;;22.38;18.80;;;1.20;65.50;3.10;101287.00;;;;5087956;28;20982;-75
2021/01/10 05:19:01;;;;;;;22.88;19.40;;;1.10;66.20;3.10;101301.00;;;;5090140;28;20429;-75
2021/01/10 05:21:29;;;;;;;21.88;19.50;;;1.00;66.70;3.00;101293.00;;;;5087258;28;20854;-75
2021/01/10 05:23:59;;;;;;;20.20;18.10;;;1.10;66.80;3.00;101290.00;;;;5089174;28;20414;-74
2021/01/10 05:26:33;;;;;;;21.90;19.50;;;1.10;66.70;2.90;101303.00;;;;5106693;28;20506;-74
2021/01/10 05:29:10;;;;;;;24.67;20.75;;;1.10;66.70;2.90;101302.00;;;;5086337;28;20868;-74
2021/01/10 05:31:39;;;;;;;24.02;20.35;;;1.00;66.80;2.90;101299.00;;;;5091130;28;20414;-74
2021/01/10 05:34:09;;;;;;;23.55;21.05;;;0.90;67.30;2.90;101303.00;;;;5087626;28;20449;-74
2021/01/10 05:36:38;;;;;;;22.70;20.30;;;1.00;67.70;2.80;101297.00;;;;5090117;28;20519;-73
2021/01/10 05:39:17;;;;;;;24.40;21.80;;;1.00;67.10;2.80;101282.00;;;;5093921;28;20446;-73
2021/01/10 05:41:51;;;;;;;25.98;23.27;;;0.90;68.00;2.90;101289.00;;;;5097478;28;20424;-74
2021/01/10 05:44:21;;;;;;;26.50;23.70;;;1.00;67.90;2.90;101286.00;;;;5101603;28;20456;-74
2021/01/10 05:46:49;;;;;;;24.40;21.80;;;1.00;67.90;2.90;101295.00;;;;5096509;28;20418;-74
2021/01/10 05:49:21;;;;;;;24.48;21.98;;;1.00;67.00;2.90;101302.00;;;;5103344;28;20406;-74
2021/01/10 05:51:50;;;;;;;24.02;21.42;;;1.00;67.50;2.90;101301.00;;;;5120755;28;20430;-75
2021/01/10 05:54:37;;;;;;;22.42;20.02;;;1.10;67.50;3.00;101308.00;;;;5103778;28;20438;-75
2021/01/10 05:57:06;;;;;;;23.80;21.23;;;1.10;67.30;3.00;101308.00;;;;5101841;28;20433;-75
2021/01/10 05:59:37;;;;;;;23.80;21.30;;;1.30;67.10;3.00;101294.00;;;;5099660;28;20474;-76
2021/01/10 06:02:06;;;;;;;24.48;21.90;;;1.20;66.60;3.00;101291.00;;;;5101881;28;20440;-75
2021/01/10 06:04:34;;;;;;;24.33;21.70;;;1.20;66.50;3.10;101312.00;;;;5101118;28;20477;-76
2021/01/10 06:07:04;;;;;;;23.13;20.63;;;1.20;66.80;3.10;101308.00;;;;5105198;28;20444;-75
2021/01/10 06:09:45;;;;;;;24.67;22.10;;;1.20;67.00;3.10;101308.00;;;;5103358;28;20406;-75
2021/01/10 06:12:22;;;;;;;25.42;22.10;;;1.20;65.90;3.10;101299.00;;;;5104733;28;20406;-75
2021/01/10 06:14:53;;;;;;;24.67;21.15;;;1.20;66.20;3.10;101313.00;;;;5136884;27;20427;-75
2021/01/10 06:17:20;;;;;;;23.88;21.13;;;1.10;66.60;3.10;101301.00;;;;5105940;28;20441;-72
2021/01/10 06:19:50;;;;;;;22.90;20.40;;;1.20;66.70;3.10;101313.00;;;;5095478;28;20425;-75
2021/01/10 06:22:18;;;;;;;22.80;20.40;;;1.20;66.40;3.00;101311.00;;;;5108589;28;20428;-75
2021/01/10 06:24:47;;;;;;;22.70;20.30;;;1.20;66.30;3.00;101296.00;;;;5124542;28;20421;-75
2021/01/10 06:27:22;;;;;;;21.83;19.50;;;1.20;66.50;3.00;101308.00;;;;5106083;28;20410;-75
2021/01/10 06:29:54;;;;;;;23.67;20.90;;;1.10;66.70;3.00;101311.00;;;;5104494;28;20931;-75
2021/01/10 06:32:25;;;;;;;24.77;21.95;;;1.00;66.10;2.90;101324.00;;;;5098776;28;20434;-75
2021/01/10 06:34:53;;;;;;;28.00;23.65;;;0.90;66.80;2.90;101314.00;;;;5096090;28;21039;-74
2021/01/10 06:37:20;;;;;;;42.03;30.30;;;1.00;67.30;2.90;101312.00;;;;5103040;28;20497;-75
2021/01/10 06:39:48;;;;;;;40.05;29.50;;;1.00;67.10;3.00;101312.00;;;;5101669;28;20917;-74
2021/01/10 06:42:17;;;;;;;40.35;29.02;;;1.00;67.20;3.00;66907.00;;;;5119498;28;20406;-74
2021/01/10 06:44:51;;;;;;;31.90;25.50;;;1.00;67.10;3.00;101318.00;;;;5111427;28;20431;-74
2021/01/10 06:47:23;;;;;;;27.63;23.00;;;1.10;66.80;3.00;101315.00;;;;5112311;28;20423;-74
2021/01/10 06:49:53;;;;;;;23.77;19.88;;;1.10;66.90;3.00;101323.00;;;;5106887;28;20452;-75
2021/01/10 06:52:24;;;;;;;25.67;21.70;;;1.00;66.90;3.00;101330.00;;;;5103285;28;20413;-75
2021/01/10 06:54:53;;;;;;;27.37;21.77;;;1.10;66.80;3.00;101334.00;;;;5117184;28;20547;-74
2021/01/10 06:57:30;;;;;;;23.83;21.20;;;1.00;66.30;3.00;101321.00;;;;5112015;28;20484;-74
2021/01/10 07:00:10;;;;;;;25.48;20.60;;;0.90;67.20;3.00;101323.00;;;;5112425;28;20437;-74
2021/01/10 07:03:07;;;;;;;23.45;19.60;;;1.00;68.10;3.10;101318.00;;;;5101129;28;20426;-74
2021/01/10 07:06:06;;;;;;;21.33;18.00;;;1.20;68.00;3.20;101317.00;;;;5080039;28;20468;-74
2021/01/10 07:08:37;;;;;;;20.98;17.40;;;1.20;67.40;3.20;101317.00;;;;5081104;28;20406;-73
2021/01/10 07:11:36;;;;;;;21.05;17.90;;;1.30;67.30;3.10;101317.00;;;;5104821;28;20421;-74
2021/01/10 07:14:28;;;;;;;22.55;18.80;;;1.20;67.10;3.10;101319.00;;;;5090906;28;20410;-75
2021/01/10 07:17:14;;;;;;;22.60;18.23;;;1.10;66.90;3.10;101311.00;;;;5076655;28;20419;-74
2021/01/10 07:19:49;;;;;;;20.58;18.38;;;1.10;67.00;3.00;101314.00;;;;5089265;28;20492;-74
2021/01/10 07:22:30;;;;;;;20.38;17.58;;;1.10;67.00;3.00;101323.00;;;;5089522;28;20481;-74
2021/01/10 07:25:34;;;;;;;21.30;19.00;;;1.10;66.70;3.00;101319.00;;;;5090612;28;20415;-74
2021/01/10 07:28:46;;;;;;;21.17;18.20;;;1.10;66.80;3.10;101320.00;;;;5096403;28;20450;-75
2021/01/10 07:31:19;;;;;;;19.40;17.10;;;1.10;66.90;3.00;101327.00;;;;5124876;28;20550;-75
2021/01/10 07:34:08;;;;;;;18.83;16.67;;;1.10;66.70;52.70;157993.00;;;;5117188;28;20432;-74
2021/01/10 07:36:52;;;;;;;22.50;19.15;;;1.10;66.50;3.00;101316.00;;;;5123565;28;20406;-75
2021/01/10 07:39:22;;;;;;;21.35;17.98;;;1.10;67.00;3.10;101314.00;;;;5116737;28;20477;-74
2021/01/10 07:41:50;;;;;;;20.45;17.58;;;1.00;66.70;3.00;101309.00;;;;5117505;28;20397;-74
2021/01/10 07:44:18;;;;;;;20.85;17.80;;;1.00;66.50;3.00;101324.00;;;;5130297;28;20464;-75
2021/01/10 07:46:57;;;;;;;19.60;17.50;;;0.90;66.50;2.90;101310.00;;;;5094377;28;20418;-75
2021/01/10 07:49:30;;;;;;;18.35;16.38;;;0.90;67.40;2.90;101321.00;;;;5096622;28;20420;-75
2021/01/10 07:52:00;;;;;;;19.95;17.85;;;1.00;67.50;217.30;157935.00;;;;5085527;28;20422;-75
2021/01/10 07:54:54;;;;;;;21.50;18.20;;;1.10;66.80;2.90;101333.00;;;;5093966;28;20992;-75
2021/01/10 07:57:33;;;;;;;20.10;17.15;;;0.90;67.30;2.90;101323.00;;;;5094185;28;20426;-74
2021/01/10 08:00:15;;;;;;;20.63;17.73;;;0.90;67.90;3.00;101340.00;;;;5086778;28;20758;-74
2021/01/10 08:03:04;;;;;;;23.63;20.33;;;1.00;67.60;2.90;101336.00;;;;5111693;28;20513;-75
2021/01/10 08:05:34;;;;;;;24.48;20.23;;;0.90;67.30;2.90;101337.00;;;;5110549;28;20429;-74
2021/01/10 08:08:05;;;;;;;21.27;18.63;;;0.90;67.10;2.90;101340.00;;;;5109341;28;20402;-75
2021/01/10 08:10:45;;;;;;;19.23;16.80;;;0.90;67.80;3.00;101347.00;;;;5093416;28;20406;-74
2021/01/10 08:13:33;;;;;;;20.48;17.45;;;1.10;67.40;3.20;101355.00;;;;5118251;27;20452;-75
2021/01/10 08:16:03;;;;;;;19.35;17.20;;;1.20;67.30;3.20;101349.00;;;;5109552;28;20421;-74
2021/01/10 08:18:34;;;;;;;21.20;18.80;;;1.20;66.40;3.40;101340.00;;;;5097913;28;20439;-74
2021/01/10 08:21:08;;;;;;;19.90;17.38;;;1.30;66.20;3.50;101358.00;;;;5087481;28;20423;-75
2021/01/10 08:23:36;;;;;;;21.35;18.10;;;1.50;66.40;52.70;158199.00;;;;5092298;28;20410;-75
2021/01/10 08:26:08;;;;;;;19.38;17.38;;;1.60;66.00;217.30;158235.00;;;;5088647;28;20470;-75
2021/01/10 08:28:38;;;;;;;22.07;18.10;;;1.60;64.90;3.70;101362.00;;;;5089765;28;20525;-74
2021/01/10 08:31:07;;;;;;;22.50;18.73;;;1.60;64.60;3.60;101359.00;;;;5087129;28;20498;-75
2021/01/10 08:33:35;;;;;;;27.40;21.40;;;1.50;64.80;3.70;101366.00;;;;5081542;28;20419;-74
2021/01/10 08:36:15;;;;;;;21.20;18.40;;;1.50;65.20;3.60;101346.00;;;;5107398;28;20417;-75
2021/01/10 08:38:51;;;;;;;19.20;17.10;;;1.50;65.00;3.60;101365.00;;;;5077166;28;20900;-74
2021/01/10 08:41:25;;;;;;;19.65;16.80;;;1.50;65.50;3.70;101344.00;;;;5084390;28;20516;-74
2021/01/10 08:43:56;;;;;;;18.40;16.08;;;1.60;64.40;3.60;101346.00;;;;5102445;28;20441;-74
2021/01/10 08:46:25;;;;;;;19.63;17.30;;;1.50;65.40;3.60;101342.00;;;;5101640;28;20415;-75
2021/01/10 08:48:53;;;;;;;19.30;17.15;;;1.60;65.30;3.70;101365.00;;;;5094934;28;20424;-75
2021/01/10 08:51:30;;;;;;;19.13;17.13;;;1.70;65.00;3.80;101355.00;;;;5080266;28;20466;-74
2021/01/10 08:53:59;;;;;;;18.90;16.90;;;1.80;64.20;3.80;67094.00;;;;5087824;28;20486;-74
2021/01/10 08:56:27;;;;;;;18.80;15.98;;;1.70;63.20;3.70;101367.00;;;;5088605;28;20445;-74
2021/01/10 08:58:56;;;;;;;18.23;16.33;;;1.70;63.00;3.70;101372.00;;;;5095296;28;20417;-74
2021/01/10 09:01:25;;;;;;;19.40;17.30;;;1.60;64.40;3.60;101369.00;;;;5086431;28;20502;-74
2021/01/10 09:04:01;;;;;;;20.00;17.90;;;1.50;65.20;3.60;101384.00;;;;5087046;28;20470;-74
2021/01/10 09:06:51;;;;;;;21.13;17.53;;;1.50;65.40;3.70;101366.00;;;;5090615;28;20464;-75
2021/01/10 09:09:37;;;;;;;19.88;17.33;;;1.60;65.30;3.60;101373.00;;;;5105466;28;21027;-74
2021/01/10 09:12:25;;;;;;;19.48;17.40;;;1.50;65.40;3.60;101376.00;;;;5092063;28;20434;-75
2021/01/10 09:14:56;;;;;;;21.55;18.55;;;1.60;65.10;3.70;101374.00;;;;5083449;28;20441;-74
2021/01/10 09:17:28;;;;;;;20.33;17.63;;;1.60;64.60;3.70;101372.00;;;;5093652;28;20849;-75
2021/01/10 09:20:05;;;;;;;19.70;17.60;;;1.70;64.50;3.70;101376.00;;;;5091509;28;20971;-74
2021/01/10 09:22:35;;;;;;;18.63;16.63;;;1.70;64.00;3.80;101382.00;;;;5089831;28;20493;-76
2021/01/10 09:25:12;;;;;;;19.65;17.00;;;1.70;64.50;3.80;101392.00;;;;5087073;28;20515;-73
2021/01/10 09:27:40;;;;;;;20.30;18.10;;;1.60;64.40;52.70;158199.00;;;;5073219;28;20427;-75
2021/01/10 09:30:08;;;;;;;20.52;18.15;;;1.50;65.30;217.30;158170.00;;;;5088624;28;20413;-74
2021/01/10 09:32:36;;;;;;;21.00;18.60;;;1.50;65.40;3.90;67102.00;;;;5092613;28;20467;-74
2021/01/10 09:35:04;;;;;;;20.20;17.05;;;1.70;64.80;3.90;67112.00;;;;5091965;28;20518;-74
2021/01/10 09:37:33;;;;;;;20.00;17.30;;;1.80;64.20;3.80;101362.00;;;;5107549;28;20865;-75
2021/01/10 09:40:11;;;;;;;20.47;18.07;;;1.70;64.40;3.90;101378.00;;;;5090747;28;20453;-75
2021/01/10 09:42:44;;;;;;;18.80;16.80;;;1.70;64.30;4.00;101381.00;;;;5091826;28;20871;-74
2021/01/10 09:45:14;;;;;;;18.05;16.15;;;1.90;63.80;4.10;101384.00;;;;5091774;28;20458;-74
2021/01/10 09:47:50;;;;;;;18.30;16.27;;;2.00;63.10;217.30;158447.00;;;;5090238;28;20476;-74
2021/01/10 09:50:18;;;;;;;18.30;15.45;;;2.00;62.70;4.10;67159.00;;;;5082777;28;20437;-75
2021/01/10 09:52:47;;;;;;;18.38;16.17;;;2.10;62.00;4.10;67167.00;;;;5093603;28;20534;-74
2021/01/10 09:55:15;;;;;;;17.30;15.40;;;2.10;61.70;217.30;158473.00;;;;5093188;28;20909;-75
2021/01/10 09:57:43;;;;;;;18.50;16.20;;;2.30;61.50;4.40;101376.00;;;;5091413;28;20585;-74
2021/01/10 10:00:16;;;;;;;17.23;15.30;;;2.40;60.90;4.50;101374.00;;;;5089234;28;20498;-75
2021/01/10 10:02:44;;;;;;;18.38;16.15;;;2.50;60.30;4.60;101373.00;;;;5086512;28;20415;-74
2021/01/10 10:05:15;;;;;;;18.23;15.55;;;2.50;59.80;4.70;101356.00;;;;5084644;28;20460;-75
2021/01/10 10:07:46;;;;;;;21.67;16.95;;;2.60;59.30;4.70;101360.00;;;;5111320;28;20432;-74
2021/01/10 10:10:23;;;;;;;18.55;16.65;;;2.60;59.20;4.80;101367.00;;;;5091437;28;20486;-75
2021/01/10 10:12:57;;;;;;;19.80;16.90;;;2.70;58.40;4.80;67319.00;;;;5080566;28;20478;-74
2021/01/10 10:15:38;;;;;;;19.00;17.00;;;2.70;58.00;4.80;101368.00;;;;5086671;28;20445;-74
2021/01/10 10:18:06;;;;;;;18.88;16.70;;;2.70;58.50;4.80;101351.00;;;;5090143;28;20448;-74
2021/01/10 10:20:34;;;;;;;19.30;17.20;;;2.70;58.50;4.70;101350.00;;;;5089572;28;20852;-75
2021/01/10 10:23:09;;;;;;;19.70;17.60;;;2.70;57.90;4.80;101358.00;;;;5088732;28;20920;-75
2021/01/10 10:25:38;;;;;;;19.38;17.27;;;2.80;58.60;4.90;101340.00;;;;5094073;28;20553;-74
2021/01/10 10:28:06;;;;;;;18.73;16.73;;;2.90;56.70;5.00;101339.00;;;;5087584;28;20449;-74
2021/01/10 10:30:34;;;;;;;18.42;16.63;;;3.00;55.50;5.20;101337.00;;;;5076345;28;20415;-74
2021/01/10 10:33:03;;;;;;;17.70;15.80;;;3.10;54.80;5.20;101332.00;;;;5082193;28;20415;-74
2021/01/10 10:35:31;;;;;;;19.50;15.60;;;3.20;54.60;5.10;101335.00;;;;5087154;28;20459;-74
2021/01/10 10:37:59;;;;;;;15.82;14.23;;;3.50;58.10;5.20;101336.00;;;;5087615;28;20417;-74
2021/01/10 10:40:27;;;;;;;16.13;14.43;;;3.60;58.40;5.30;101316.00;;;;5083486;28;20417;-76
2021/01/10 10:42:56;;;;;;;15.30;13.80;;;3.60;51.30;5.40;101320.00;;;;5086490;28;20445;-74
2021/01/10 10:45:23;;;;;;;15.80;14.10;;;3.50;52.30;5.30;101324.00;;;;5089499;28;20497;-73
2021/01/10 10:47:51;;;;;;;15.75;13.90;;;3.50;50.90;5.40;101318.00;;;;5089471;28;20531;-74
2021/01/10 10:50:19;;;;;;;15.48;13.88;;;3.50;51.10;5.30;101310.00;;;;5090835;28;20420;-73
2021/01/10 10:52:46;;;;;;;15.30;13.70;;;3.60;50.20;5.30;101310.00;;;;5093603;28;20901;-74
2021/01/10 10:55:16;;;;;;;15.85;13.45;;;3.60;49.30;5.50;101301.00;;;;5090200;28;20426;-73
2021/01/10 10:57:44;;;;;;;14.88;13.27;;;3.70;48.00;5.60;101312.00;;;;5101933;28;20424;-74
2021/01/10 11:00:15;;;;;;;14.95;13.38;;;3.80;48.40;5.80;101308.00;;;;5104591;28;20489;-74
2021/01/10 11:02:47;;;;;;;14.82;13.23;;;4.00;48.00;5.90;101306.00;;;;5086237;28;20466;-73
2021/01/10 11:05:15;;;;;;;14.82;13.32;;;4.00;47.20;6.00;101328.00;;;;5108734;28;20414;-74